Accueil
METAR-TAF:

METAR-TAF

Aéroports :

Yap, Micronésie

Aéroport international de Yap

latitude: 09-29N, longitude: 138-05E, altitude: 28 m

Observation

Le bulletin a été fait il y a 44 minutes, à 21:51 UTC
Vent 5 kt de direction variable
Température 28°C
Humidité 84%
Pression 1009 hPa
Visibilité: 19.3 km
Quelques nuages à une hauteur de 1600 ft
Nuages épars à une hauteur de 30000 ft

METAR: PTYA 242151Z VRB05KT 12SM FEW016 SCT300 28/25 A2979 RMK SLP090 T02810247

Heure: 08:35 (22:35 UTC)

Prévision

Le bulletin a été fait il y a 4 heures et 57 minutes, à 17:38 UTC
Prévision valable du 24 à 18 UTC au 25 à 18 UTC
Vent 5 kt de direction variable
Visibilité: 10 km
Quelques nuages à une hauteur de 1800 ft

TAF: PTYA 241738Z 2418/2518 VRB05KT P6SM FEW018

Observations et prévisions météorologiques de plus de 4000 aéroports (messages METAR et TAF).

Les stations disponibles sont représentées par des disques jaunes et rouges sur la carte.

Passer la souris dessus pour voir le nom de la station.

Cliquer dessus pour voir les observations et prévisions météorologiques.

Pour changer de carte: cliquez sur les boutons verts avec une croix noire pour zoomer, sur le bouton vert avec un tiret pour effectuer un zoom arrière, ou sur les flèches vertes pour les cartes adjacentes.


METAR-TAF: